sensor_id;sensor_type;location;lat;lon;timestamp;P1;durP1;ratioP1;P2;durP2;ratioP2
6868;SDS011;3473;42.604;23.496;2022-10-31T00:00:17;0.97;;;0.80;;
6868;SDS011;3473;42.604;23.496;2022-10-31T00:01:49;0.67;;;0.60;;
6868;SDS011;3473;42.604;23.496;2022-10-31T00:03:20;2.67;;;1.07;;
6868;SDS011;3473;42.604;23.496;2022-10-31T00:05:00;1.97;;;0.90;;
6868;SDS011;3473;42.604;23.496;2022-10-31T00:06:30;1.10;;;1.00;;
6868;SDS011;3473;42.604;23.496;2022-10-31T00:08:05;2.40;;;0.93;;
6868;SDS011;3473;42.604;23.496;2022-10-31T00:09:35;3.27;;;1.27;;
6868;SDS011;3473;42.604;23.496;2022-10-31T00:11:08;0.93;;;0.77;;
6868;SDS011;3473;42.604;23.496;2022-10-31T00:12:40;3.17;;;1.30;;
6868;SDS011;3473;42.604;23.496;2022-10-31T00:14:11;2.30;;;0.93;;
6868;SDS011;3473;42.604;23.496;2022-10-31T00:15:43;1.10;;;0.87;;
6868;SDS011;3473;42.604;23.496;2022-10-31T00:17:14;2.37;;;1.27;;
6868;SDS011;3473;42.604;23.496;2022-10-31T00:18:47;2.17;;;1.10;;
6868;SDS011;3473;42.604;23.496;2022-10-31T00:20:19;1.20;;;0.80;;
6868;SDS011;3473;42.604;23.496;2022-10-31T00:21:53;2.63;;;1.10;;
6868;SDS011;3473;42.604;23.496;2022-10-31T00:23:25;1.33;;;1.00;;
6868;SDS011;3473;42.604;23.496;2022-10-31T00:24:55;3.90;;;1.47;;
6868;SDS011;3473;42.604;23.496;2022-10-31T00:26:27;1.57;;;1.13;;
6868;SDS011;3473;42.604;23.496;2022-10-31T00:27:59;1.37;;;1.20;;
6868;SDS011;3473;42.604;23.496;2022-10-31T00:29:30;0.87;;;0.87;;
6868;SDS011;3473;42.604;23.496;2022-10-31T00:31:02;1.33;;;0.83;;
6868;SDS011;3473;42.604;23.496;2022-10-31T00:32:33;0.90;;;0.87;;
6868;SDS011;3473;42.604;23.496;2022-10-31T00:34:05;1.80;;;1.33;;
6868;SDS011;3473;42.604;23.496;2022-10-31T00:35:37;1.60;;;1.00;;
6868;SDS011;3473;42.604;23.496;2022-10-31T00:37:08;3.07;;;1.37;;
6868;SDS011;3473;42.604;23.496;2022-10-31T00:38:39;2.30;;;0.87;;
6868;SDS011;3473;42.604;23.496;2022-10-31T00:40:10;1.07;;;0.93;;
6868;SDS011;3473;42.604;23.496;2022-10-31T00:41:42;1.67;;;1.13;;
6868;SDS011;3473;42.604;23.496;2022-10-31T00:43:13;1.17;;;1.07;;
6868;SDS011;3473;42.604;23.496;2022-10-31T00:44:44;1.57;;;0.80;;
6868;SDS011;3473;42.604;23.496;2022-10-31T00:46:19;1.13;;;0.93;;
6868;SDS011;3473;42.604;23.496;2022-10-31T00:47:50;0.70;;;0.70;;
6868;SDS011;3473;42.604;23.496;2022-10-31T00:49:22;2.07;;;1.30;;
6868;SDS011;3473;42.604;23.496;2022-10-31T00:50:55;1.27;;;0.73;;
6868;SDS011;3473;42.604;23.496;2022-10-31T00:52:26;0.70;;;0.70;;
6868;SDS011;3473;42.604;23.496;2022-10-31T00:53:58;1.27;;;1.10;;
6868;SDS011;3473;42.604;23.496;2022-10-31T00:55:29;1.53;;;1.03;;
6868;SDS011;3473;42.604;23.496;2022-10-31T00:57:00;1.57;;;1.00;;
6868;SDS011;3473;42.604;23.496;2022-10-31T00:58:34;1.50;;;1.27;;
6868;SDS011;3473;42.604;23.496;2022-10-31T01:00:07;1.33;;;1.10;;
6868;SDS011;3473;42.604;23.496;2022-10-31T01:01:37;2.30;;;1.20;;
6868;SDS011;3473;42.604;23.496;2022-10-31T01:03:09;1.23;;;1.13;;
6868;SDS011;3473;42.604;23.496;2022-10-31T01:04:39;3.20;;;2.00;;
6868;SDS011;3473;42.604;23.496;2022-10-31T01:06:18;4.27;;;1.80;;
6868;SDS011;3473;42.604;23.496;2022-10-31T01:07:49;6.00;;;2.57;;
6868;SDS011;3473;42.604;23.496;2022-10-31T01:09:21;1.97;;;1.50;;
6868;SDS011;3473;42.604;23.496;2022-10-31T01:11:04;2.70;;;1.63;;
6868;SDS011;3473;42.604;23.496;2022-10-31T01:12:35;4.47;;;2.23;;
6868;SDS011;3473;42.604;23.496;2022-10-31T01:14:07;4.13;;;2.30;;
6868;SDS011;3473;42.604;23.496;2022-10-31T01:15:39;4.70;;;2.23;;
6868;SDS011;3473;42.604;23.496;2022-10-31T01:17:11;3.07;;;2.30;;
6868;SDS011;3473;42.604;23.496;2022-10-31T01:18:42;3.50;;;1.73;;
6868;SDS011;3473;42.604;23.496;2022-10-31T01:20:14;1.87;;;1.50;;
6868;SDS011;3473;42.604;23.496;2022-10-31T01:21:46;2.50;;;1.23;;
6868;SDS011;3473;42.604;23.496;2022-10-31T01:23:18;2.83;;;1.30;;
6868;SDS011;3473;42.604;23.496;2022-10-31T01:24:48;1.40;;;1.20;;
6868;SDS011;3473;42.604;23.496;2022-10-31T01:26:20;1.23;;;0.93;;
6868;SDS011;3473;42.604;23.496;2022-10-31T01:27:52;2.17;;;1.00;;
6868;SDS011;3473;42.604;23.496;2022-10-31T01:29:24;2.13;;;1.23;;
6868;SDS011;3473;42.604;23.496;2022-10-31T01:30:56;1.17;;;1.00;;
6868;SDS011;3473;42.604;23.496;2022-10-31T01:32:29;2.13;;;1.10;;
6868;SDS011;3473;42.604;23.496;2022-10-31T01:34:01;0.97;;;0.97;;
6868;SDS011;3473;42.604;23.496;2022-10-31T01:35:34;2.53;;;1.20;;
6868;SDS011;3473;42.604;23.496;2022-10-31T01:37:06;1.13;;;1.00;;
6868;SDS011;3473;42.604;23.496;2022-10-31T01:38:40;1.90;;;1.17;;
6868;SDS011;3473;42.604;23.496;2022-10-31T01:40:11;1.07;;;0.90;;
6868;SDS011;3473;42.604;23.496;2022-10-31T01:41:43;1.80;;;1.33;;
6868;SDS011;3473;42.604;23.496;2022-10-31T01:43:14;1.23;;;0.70;;
6868;SDS011;3473;42.604;23.496;2022-10-31T01:44:58;0.83;;;0.83;;
6868;SDS011;3473;42.604;23.496;2022-10-31T01:46:33;1.43;;;0.73;;
6868;SDS011;3473;42.604;23.496;2022-10-31T01:48:04;1.53;;;1.00;;
6868;SDS011;3473;42.604;23.496;2022-10-31T01:49:36;2.37;;;1.00;;
6868;SDS011;3473;42.604;23.496;2022-10-31T01:51:10;1.23;;;1.13;;
6868;SDS011;3473;42.604;23.496;2022-10-31T01:52:44;0.70;;;0.70;;
6868;SDS011;3473;42.604;23.496;2022-10-31T01:54:17;1.90;;;1.30;;
6868;SDS011;3473;42.604;23.496;2022-10-31T01:55:50;1.30;;;1.00;;
6868;SDS011;3473;42.604;23.496;2022-10-31T01:57:21;3.40;;;1.33;;
6868;SDS011;3473;42.604;23.496;2022-10-31T01:58:52;1.27;;;1.10;;
6868;SDS011;3473;42.604;23.496;2022-10-31T02:00:25;1.60;;;1.50;;
6868;SDS011;3473;42.604;23.496;2022-10-31T02:01:57;2.03;;;0.80;;
6868;SDS011;3473;42.604;23.496;2022-10-31T02:03:27;2.23;;;1.53;;
6868;SDS011;3473;42.604;23.496;2022-10-31T02:05:00;2.27;;;1.57;;
6868;SDS011;3473;42.604;23.496;2022-10-31T02:06:36;2.03;;;0.80;;
6868;SDS011;3473;42.604;23.496;2022-10-31T02:08:11;2.03;;;1.20;;
6868;SDS011;3473;42.604;23.496;2022-10-31T02:09:44;4.73;;;1.23;;
6868;SDS011;3473;42.604;23.496;2022-10-31T02:11:18;1.20;;;1.10;;
6868;SDS011;3473;42.604;23.496;2022-10-31T02:12:50;1.20;;;1.10;;
6868;SDS011;3473;42.604;23.496;2022-10-31T02:14:21;1.90;;;1.13;;
6868;SDS011;3473;42.604;23.496;2022-10-31T02:15:54;1.30;;;0.80;;
6868;SDS011;3473;42.604;23.496;2022-10-31T02:17:26;1.83;;;1.23;;
6868;SDS011;3473;42.604;23.496;2022-10-31T02:18:56;1.37;;;1.17;;
6868;SDS011;3473;42.604;23.496;2022-10-31T02:20:29;2.20;;;1.47;;
6868;SDS011;3473;42.604;23.496;2022-10-31T02:22:06;3.73;;;1.43;;
6868;SDS011;3473;42.604;23.496;2022-10-31T02:25:33;3.80;;;1.27;;
6868;SDS011;3473;42.604;23.496;2022-10-31T02:27:07;2.27;;;1.43;;
6868;SDS011;3473;42.604;23.496;2022-10-31T02:28:47;1.13;;;0.90;;
6868;SDS011;3473;42.604;23.496;2022-10-31T02:30:21;2.27;;;1.30;;
6868;SDS011;3473;42.604;23.496;2022-10-31T02:31:56;1.10;;;0.90;;
6868;SDS011;3473;42.604;23.496;2022-10-31T02:33:30;1.30;;;1.00;;
6868;SDS011;3473;42.604;23.496;2022-10-31T02:35:05;2.00;;;1.40;;
6868;SDS011;3473;42.604;23.496;2022-10-31T02:36:39;1.87;;;1.33;;
6868;SDS011;3473;42.604;23.496;2022-10-31T02:38:15;2.67;;;1.63;;
6868;SDS011;3473;42.604;23.496;2022-10-31T02:39:50;2.90;;;1.60;;
6868;SDS011;3473;42.604;23.496;2022-10-31T02:41:26;1.67;;;1.20;;
6868;SDS011;3473;42.604;23.496;2022-10-31T02:43:02;2.10;;;1.27;;
6868;SDS011;3473;42.604;23.496;2022-10-31T02:44:37;2.10;;;1.00;;
6868;SDS011;3473;42.604;23.496;2022-10-31T02:46:10;1.70;;;1.30;;
6868;SDS011;3473;42.604;23.496;2022-10-31T02:47:46;1.70;;;1.37;;
6868;SDS011;3473;42.604;23.496;2022-10-31T02:49:21;3.07;;;1.50;;
6868;SDS011;3473;42.604;23.496;2022-10-31T02:50:55;2.00;;;1.40;;
6868;SDS011;3473;42.604;23.496;2022-10-31T02:52:29;2.10;;;1.33;;
6868;SDS011;3473;42.604;23.496;2022-10-31T02:54:02;1.10;;;1.00;;
6868;SDS011;3473;42.604;23.496;2022-10-31T02:57:28;1.07;;;1.00;;
6868;SDS011;3473;42.604;23.496;2022-10-31T02:59:01;1.70;;;1.03;;
6868;SDS011;3473;42.604;23.496;2022-10-31T03:00:35;1.47;;;1.30;;
6868;SDS011;3473;42.604;23.496;2022-10-31T03:02:20;2.40;;;1.43;;
6868;SDS011;3473;42.604;23.496;2022-10-31T03:04:01;2.53;;;1.30;;
6868;SDS011;3473;42.604;23.496;2022-10-31T03:05:37;3.13;;;1.83;;
6868;SDS011;3473;42.604;23.496;2022-10-31T03:07:15;3.27;;;1.40;;
6868;SDS011;3473;42.604;23.496;2022-10-31T03:08:50;2.77;;;1.30;;
6868;SDS011;3473;42.604;23.496;2022-10-31T03:10:24;1.03;;;0.93;;
6868;SDS011;3473;42.604;23.496;2022-10-31T03:12:03;1.93;;;1.10;;
6868;SDS011;3473;42.604;23.496;2022-10-31T03:13:38;1.83;;;1.40;;
6868;SDS011;3473;42.604;23.496;2022-10-31T03:15:12;2.07;;;1.40;;
6868;SDS011;3473;42.604;23.496;2022-10-31T03:16:45;2.97;;;1.37;;
6868;SDS011;3473;42.604;23.496;2022-10-31T03:18:19;2.93;;;1.80;;
6868;SDS011;3473;42.604;23.496;2022-10-31T03:19:54;2.07;;;1.30;;
6868;SDS011;3473;42.604;23.496;2022-10-31T03:21:26;1.93;;;1.27;;
6868;SDS011;3473;42.604;23.496;2022-10-31T03:23:02;3.50;;;1.03;;
6868;SDS011;3473;42.604;23.496;2022-10-31T03:24:34;1.80;;;1.43;;
6868;SDS011;3473;42.604;23.496;2022-10-31T03:26:07;1.93;;;1.13;;
6868;SDS011;3473;42.604;23.496;2022-10-31T03:27:39;4.00;;;1.27;;
6868;SDS011;3473;42.604;23.496;2022-10-31T03:29:12;1.50;;;1.20;;
6868;SDS011;3473;42.604;23.496;2022-10-31T03:30:45;2.33;;;1.43;;
6868;SDS011;3473;42.604;23.496;2022-10-31T03:32:18;2.43;;;1.67;;
6868;SDS011;3473;42.604;23.496;2022-10-31T03:33:54;1.60;;;1.17;;
6868;SDS011;3473;42.604;23.496;2022-10-31T03:35:28;2.03;;;1.20;;
6868;SDS011;3473;42.604;23.496;2022-10-31T03:37:02;2.20;;;1.43;;
6868;SDS011;3473;42.604;23.496;2022-10-31T03:38:35;1.97;;;1.20;;
6868;SDS011;3473;42.604;23.496;2022-10-31T03:40:07;4.80;;;1.57;;
6868;SDS011;3473;42.604;23.496;2022-10-31T03:41:39;2.27;;;1.33;;
6868;SDS011;3473;42.604;23.496;2022-10-31T03:43:13;2.40;;;1.57;;
6868;SDS011;3473;42.604;23.496;2022-10-31T03:44:47;2.47;;;1.37;;
6868;SDS011;3473;42.604;23.496;2022-10-31T03:46:19;3.57;;;1.60;;
6868;SDS011;3473;42.604;23.496;2022-10-31T03:47:51;1.83;;;1.57;;
6868;SDS011;3473;42.604;23.496;2022-10-31T03:49:25;3.43;;;1.70;;
6868;SDS011;3473;42.604;23.496;2022-10-31T03:50:59;2.53;;;1.30;;
6868;SDS011;3473;42.604;23.496;2022-10-31T03:52:33;2.00;;;1.50;;
6868;SDS011;3473;42.604;23.496;2022-10-31T03:54:08;1.57;;;1.17;;
6868;SDS011;3473;42.604;23.496;2022-10-31T03:55:41;3.80;;;1.90;;
6868;SDS011;3473;42.604;23.496;2022-10-31T03:57:14;3.60;;;1.37;;
6868;SDS011;3473;42.604;23.496;2022-10-31T03:58:48;2.23;;;1.63;;
6868;SDS011;3473;42.604;23.496;2022-10-31T04:00:23;2.97;;;1.20;;
6868;SDS011;3473;42.604;23.496;2022-10-31T04:01:55;2.97;;;1.43;;
6868;SDS011;3473;42.604;23.496;2022-10-31T04:03:28;1.37;;;1.20;;
6868;SDS011;3473;42.604;23.496;2022-10-31T04:05:01;1.70;;;1.37;;
6868;SDS011;3473;42.604;23.496;2022-10-31T04:06:34;3.97;;;1.50;;
6868;SDS011;3473;42.604;23.496;2022-10-31T04:08:09;2.30;;;1.60;;
6868;SDS011;3473;42.604;23.496;2022-10-31T04:09:43;2.40;;;1.57;;
6868;SDS011;3473;42.604;23.496;2022-10-31T04:11:19;1.70;;;1.43;;
6868;SDS011;3473;42.604;23.496;2022-10-31T04:12:52;1.53;;;1.30;;
6868;SDS011;3473;42.604;23.496;2022-10-31T04:14:26;2.10;;;1.30;;
6868;SDS011;3473;42.604;23.496;2022-10-31T04:15:58;2.33;;;1.53;;
6868;SDS011;3473;42.604;23.496;2022-10-31T04:17:31;1.90;;;1.70;;
6868;SDS011;3473;42.604;23.496;2022-10-31T04:19:02;3.07;;;2.03;;
6868;SDS011;3473;42.604;23.496;2022-10-31T04:20:36;2.43;;;1.60;;
6868;SDS011;3473;42.604;23.496;2022-10-31T04:22:09;2.33;;;1.30;;
6868;SDS011;3473;42.604;23.496;2022-10-31T04:23:40;2.13;;;1.30;;
6868;SDS011;3473;42.604;23.496;2022-10-31T04:25:11;2.40;;;1.77;;
6868;SDS011;3473;42.604;23.496;2022-10-31T04:26:42;1.90;;;1.30;;
6868;SDS011;3473;42.604;23.496;2022-10-31T04:28:13;2.87;;;1.50;;
6868;SDS011;3473;42.604;23.496;2022-10-31T04:29:44;2.00;;;1.17;;
6868;SDS011;3473;42.604;23.496;2022-10-31T04:31:18;4.70;;;2.07;;
6868;SDS011;3473;42.604;23.496;2022-10-31T04:32:49;2.90;;;1.63;;
6868;SDS011;3473;42.604;23.496;2022-10-31T04:34:21;3.47;;;1.53;;
6868;SDS011;3473;42.604;23.496;2022-10-31T04:35:52;2.20;;;1.17;;
6868;SDS011;3473;42.604;23.496;2022-10-31T04:37:28;2.00;;;1.40;;
6868;SDS011;3473;42.604;23.496;2022-10-31T04:38:59;2.67;;;1.50;;
6868;SDS011;3473;42.604;23.496;2022-10-31T04:40:31;1.80;;;1.50;;
6868;SDS011;3473;42.604;23.496;2022-10-31T04:42:02;4.23;;;1.60;;
6868;SDS011;3473;42.604;23.496;2022-10-31T04:43:34;2.60;;;1.70;;
6868;SDS011;3473;42.604;23.496;2022-10-31T04:45:06;2.17;;;1.70;;
6868;SDS011;3473;42.604;23.496;2022-10-31T04:46:37;2.40;;;1.87;;
6868;SDS011;3473;42.604;23.496;2022-10-31T04:48:08;3.47;;;1.83;;
6868;SDS011;3473;42.604;23.496;2022-10-31T04:49:38;2.83;;;1.80;;
6868;SDS011;3473;42.604;23.496;2022-10-31T04:51:10;2.73;;;1.70;;
6868;SDS011;3473;42.604;23.496;2022-10-31T04:52:47;1.73;;;1.27;;
6868;SDS011;3473;42.604;23.496;2022-10-31T04:54:18;1.80;;;1.47;;
6868;SDS011;3473;42.604;23.496;2022-10-31T04:55:49;1.90;;;1.30;;
6868;SDS011;3473;42.604;23.496;2022-10-31T04:57:20;2.63;;;1.70;;
6868;SDS011;3473;42.604;23.496;2022-10-31T04:58:53;2.37;;;1.67;;
6868;SDS011;3473;42.604;23.496;2022-10-31T05:00:25;3.57;;;2.00;;
6868;SDS011;3473;42.604;23.496;2022-10-31T05:01:56;4.23;;;1.73;;
6868;SDS011;3473;42.604;23.496;2022-10-31T05:03:28;2.30;;;1.47;;
6868;SDS011;3473;42.604;23.496;2022-10-31T05:05:00;2.07;;;1.30;;
6868;SDS011;3473;42.604;23.496;2022-10-31T05:06:33;2.83;;;1.53;;
6868;SDS011;3473;42.604;23.496;2022-10-31T05:08:06;2.90;;;1.80;;
6868;SDS011;3473;42.604;23.496;2022-10-31T05:09:38;3.13;;;1.30;;
6868;SDS011;3473;42.604;23.496;2022-10-31T05:11:09;3.20;;;1.90;;
6868;SDS011;3473;42.604;23.496;2022-10-31T05:12:46;2.77;;;1.70;;
6868;SDS011;3473;42.604;23.496;2022-10-31T05:14:18;3.57;;;1.50;;
6868;SDS011;3473;42.604;23.496;2022-10-31T05:15:50;2.77;;;1.83;;
6868;SDS011;3473;42.604;23.496;2022-10-31T05:17:21;4.07;;;2.13;;
6868;SDS011;3473;42.604;23.496;2022-10-31T05:18:52;5.27;;;1.80;;
6868;SDS011;3473;42.604;23.496;2022-10-31T05:20:24;2.50;;;1.50;;
6868;SDS011;3473;42.604;23.496;2022-10-31T05:21:55;2.20;;;1.50;;
6868;SDS011;3473;42.604;23.496;2022-10-31T05:23:28;4.83;;;2.40;;
6868;SDS011;3473;42.604;23.496;2022-10-31T05:24:59;12.77;;;5.37;;
6868;SDS011;3473;42.604;23.496;2022-10-31T05:26:30;7.37;;;3.80;;
6868;SDS011;3473;42.604;23.496;2022-10-31T05:28:01;6.13;;;2.60;;
6868;SDS011;3473;42.604;23.496;2022-10-31T05:29:32;5.60;;;2.03;;
6868;SDS011;3473;42.604;23.496;2022-10-31T05:31:04;5.40;;;2.17;;
6868;SDS011;3473;42.604;23.496;2022-10-31T05:32:39;3.30;;;1.90;;
6868;SDS011;3473;42.604;23.496;2022-10-31T05:34:10;5.37;;;1.37;;
6868;SDS011;3473;42.604;23.496;2022-10-31T05:35:42;3.47;;;1.43;;
6868;SDS011;3473;42.604;23.496;2022-10-31T05:37:14;3.33;;;1.80;;
6868;SDS011;3473;42.604;23.496;2022-10-31T05:38:47;2.97;;;1.97;;
6868;SDS011;3473;42.604;23.496;2022-10-31T05:40:19;2.47;;;1.60;;
6868;SDS011;3473;42.604;23.496;2022-10-31T05:41:50;4.73;;;1.80;;
6868;SDS011;3473;42.604;23.496;2022-10-31T05:43:24;1.87;;;1.60;;
6868;SDS011;3473;42.604;23.496;2022-10-31T05:44:55;2.37;;;1.83;;
6868;SDS011;3473;42.604;23.496;2022-10-31T05:46:27;3.40;;;2.60;;
6868;SDS011;3473;42.604;23.496;2022-10-31T05:47:58;3.43;;;2.33;;
6868;SDS011;3473;42.604;23.496;2022-10-31T05:49:30;4.80;;;2.20;;
6868;SDS011;3473;42.604;23.496;2022-10-31T05:51:04;5.13;;;2.03;;
6868;SDS011;3473;42.604;23.496;2022-10-31T05:52:36;5.03;;;2.30;;
6868;SDS011;3473;42.604;23.496;2022-10-31T05:54:08;3.80;;;2.20;;
6868;SDS011;3473;42.604;23.496;2022-10-31T05:55:40;3.23;;;1.97;;
6868;SDS011;3473;42.604;23.496;2022-10-31T05:57:11;4.13;;;1.97;;
6868;SDS011;3473;42.604;23.496;2022-10-31T05:58:43;1.87;;;1.60;;
6868;SDS011;3473;42.604;23.496;2022-10-31T06:00:15;3.07;;;1.90;;
6868;SDS011;3473;42.604;23.496;2022-10-31T06:01:46;3.83;;;2.17;;
6868;SDS011;3473;42.604;23.496;2022-10-31T06:03:17;2.83;;;1.80;;
6868;SDS011;3473;42.604;23.496;2022-10-31T06:04:49;3.17;;;2.00;;
6868;SDS011;3473;42.604;23.496;2022-10-31T06:06:20;2.07;;;1.30;;
6868;SDS011;3473;42.604;23.496;2022-10-31T06:07:52;4.07;;;2.27;;
6868;SDS011;3473;42.604;23.496;2022-10-31T06:09:25;4.03;;;1.63;;
6868;SDS011;3473;42.604;23.496;2022-10-31T06:10:56;3.90;;;1.93;;
6868;SDS011;3473;42.604;23.496;2022-10-31T06:12:28;2.47;;;1.80;;
6868;SDS011;3473;42.604;23.496;2022-10-31T06:13:58;4.90;;;2.20;;
6868;SDS011;3473;42.604;23.496;2022-10-31T06:15:30;2.90;;;2.13;;
6868;SDS011;3473;42.604;23.496;2022-10-31T06:17:02;4.03;;;1.80;;
6868;SDS011;3473;42.604;23.496;2022-10-31T06:18:32;3.70;;;2.63;;
6868;SDS011;3473;42.604;23.496;2022-10-31T06:20:04;3.60;;;1.90;;
6868;SDS011;3473;42.604;23.496;2022-10-31T06:21:36;3.07;;;1.77;;
6868;SDS011;3473;42.604;23.496;2022-10-31T06:23:07;2.37;;;1.93;;
6868;SDS011;3473;42.604;23.496;2022-10-31T06:24:41;4.53;;;2.30;;
6868;SDS011;3473;42.604;23.496;2022-10-31T06:26:12;5.87;;;2.20;;
6868;SDS011;3473;42.604;23.496;2022-10-31T06:27:43;4.53;;;2.20;;
6868;SDS011;3473;42.604;23.496;2022-10-31T06:29:15;5.90;;;2.63;;
6868;SDS011;3473;42.604;23.496;2022-10-31T06:30:46;6.20;;;3.07;;
6868;SDS011;3473;42.604;23.496;2022-10-31T06:32:18;3.57;;;1.90;;
6868;SDS011;3473;42.604;23.496;2022-10-31T06:33:49;4.93;;;3.00;;
6868;SDS011;3473;42.604;23.496;2022-10-31T06:35:21;5.67;;;2.80;;
6868;SDS011;3473;42.604;23.496;2022-10-31T06:36:52;3.93;;;2.53;;
6868;SDS011;3473;42.604;23.496;2022-10-31T06:38:24;6.00;;;2.27;;
6868;SDS011;3473;42.604;23.496;2022-10-31T06:39:56;3.97;;;2.43;;
6868;SDS011;3473;42.604;23.496;2022-10-31T06:41:28;3.80;;;2.10;;
6868;SDS011;3473;42.604;23.496;2022-10-31T06:43:00;3.20;;;2.03;;
6868;SDS011;3473;42.604;23.496;2022-10-31T06:44:30;2.03;;;1.70;;
6868;SDS011;3473;42.604;23.496;2022-10-31T06:46:02;5.70;;;2.90;;
6868;SDS011;3473;42.604;23.496;2022-10-31T06:47:34;3.77;;;2.23;;
6868;SDS011;3473;42.604;23.496;2022-10-31T06:49:07;3.93;;;2.30;;
6868;SDS011;3473;42.604;23.496;2022-10-31T06:50:38;2.70;;;1.93;;
6868;SDS011;3473;42.604;23.496;2022-10-31T06:52:09;5.13;;;2.23;;
6868;SDS011;3473;42.604;23.496;2022-10-31T06:53:41;4.50;;;2.00;;
6868;SDS011;3473;42.604;23.496;2022-10-31T06:55:13;4.30;;;2.30;;
6868;SDS011;3473;42.604;23.496;2022-10-31T06:56:45;2.03;;;1.73;;
6868;SDS011;3473;42.604;23.496;2022-10-31T06:58:17;4.77;;;2.30;;
6868;SDS011;3473;42.604;23.496;2022-10-31T06:59:51;2.33;;;1.87;;
6868;SDS011;3473;42.604;23.496;2022-10-31T07:01:22;5.20;;;2.37;;
6868;SDS011;3473;42.604;23.496;2022-10-31T07:02:53;4.90;;;2.20;;
6868;SDS011;3473;42.604;23.496;2022-10-31T07:04:25;2.97;;;2.27;;
6868;SDS011;3473;42.604;23.496;2022-10-31T07:05:58;2.90;;;2.00;;
6868;SDS011;3473;42.604;23.496;2022-10-31T07:07:30;2.23;;;1.93;;
6868;SDS011;3473;42.604;23.496;2022-10-31T07:09:01;3.30;;;1.93;;
6868;SDS011;3473;42.604;23.496;2022-10-31T07:10:37;3.40;;;2.17;;
6868;SDS011;3473;42.604;23.496;2022-10-31T07:12:09;3.13;;;2.03;;
6868;SDS011;3473;42.604;23.496;2022-10-31T07:13:40;3.20;;;1.80;;
6868;SDS011;3473;42.604;23.496;2022-10-31T07:15:12;2.87;;;1.53;;
6868;SDS011;3473;42.604;23.496;2022-10-31T07:16:43;3.10;;;1.97;;
6868;SDS011;3473;42.604;23.496;2022-10-31T07:18:17;3.17;;;1.90;;
6868;SDS011;3473;42.604;23.496;2022-10-31T07:19:49;3.83;;;2.30;;
6868;SDS011;3473;42.604;23.496;2022-10-31T07:21:21;3.27;;;2.10;;
6868;SDS011;3473;42.604;23.496;2022-10-31T07:22:51;2.73;;;2.00;;
6868;SDS011;3473;42.604;23.496;2022-10-31T07:24:23;2.97;;;2.03;;
6868;SDS011;3473;42.604;23.496;2022-10-31T07:25:56;5.00;;;2.40;;
6868;SDS011;3473;42.604;23.496;2022-10-31T07:27:34;2.53;;;1.97;;
6868;SDS011;3473;42.604;23.496;2022-10-31T07:29:07;4.03;;;1.97;;
6868;SDS011;3473;42.604;23.496;2022-10-31T07:30:40;2.53;;;2.00;;
6868;SDS011;3473;42.604;23.496;2022-10-31T07:32:11;3.33;;;2.40;;
6868;SDS011;3473;42.604;23.496;2022-10-31T07:33:43;4.73;;;2.47;;
6868;SDS011;3473;42.604;23.496;2022-10-31T07:35:15;2.50;;;1.97;;
6868;SDS011;3473;42.604;23.496;2022-10-31T07:36:47;2.60;;;1.80;;
6868;SDS011;3473;42.604;23.496;2022-10-31T07:38:22;4.27;;;2.13;;
6868;SDS011;3473;42.604;23.496;2022-10-31T07:39:53;3.63;;;2.30;;
6868;SDS011;3473;42.604;23.496;2022-10-31T07:41:26;2.87;;;2.07;;
6868;SDS011;3473;42.604;23.496;2022-10-31T07:42:59;3.03;;;1.87;;
6868;SDS011;3473;42.604;23.496;2022-10-31T07:44:31;2.67;;;1.90;;
6868;SDS011;3473;42.604;23.496;2022-10-31T07:46:04;3.37;;;2.03;;
6868;SDS011;3473;42.604;23.496;2022-10-31T07:47:39;4.53;;;2.47;;
6868;SDS011;3473;42.604;23.496;2022-10-31T07:49:10;2.67;;;2.00;;
6868;SDS011;3473;42.604;23.496;2022-10-31T07:50:42;3.90;;;2.60;;
6868;SDS011;3473;42.604;23.496;2022-10-31T07:52:13;4.03;;;2.10;;
6868;SDS011;3473;42.604;23.496;2022-10-31T07:53:45;4.17;;;2.17;;
6868;SDS011;3473;42.604;23.496;2022-10-31T07:55:16;3.53;;;1.80;;
6868;SDS011;3473;42.604;23.496;2022-10-31T07:56:48;3.80;;;2.13;;
6868;SDS011;3473;42.604;23.496;2022-10-31T07:58:19;3.80;;;1.97;;
6868;SDS011;3473;42.604;23.496;2022-10-31T07:59:51;3.13;;;2.43;;
6868;SDS011;3473;42.604;23.496;2022-10-31T08:01:23;4.80;;;2.27;;
6868;SDS011;3473;42.604;23.496;2022-10-31T08:02:58;3.93;;;2.30;;
6868;SDS011;3473;42.604;23.496;2022-10-31T08:04:29;3.67;;;2.27;;
6868;SDS011;3473;42.604;23.496;2022-10-31T08:06:00;5.37;;;2.23;;
6868;SDS011;3473;42.604;23.496;2022-10-31T08:07:35;3.30;;;2.53;;
6868;SDS011;3473;42.604;23.496;2022-10-31T08:09:07;4.10;;;2.40;;
6868;SDS011;3473;42.604;23.496;2022-10-31T08:10:38;2.60;;;1.90;;
6868;SDS011;3473;42.604;23.496;2022-10-31T08:12:12;2.90;;;2.20;;
6868;SDS011;3473;42.604;23.496;2022-10-31T08:13:43;4.87;;;2.10;;
6868;SDS011;3473;42.604;23.496;2022-10-31T08:15:15;3.43;;;2.47;;
6868;SDS011;3473;42.604;23.496;2022-10-31T08:16:46;4.10;;;2.33;;
6868;SDS011;3473;42.604;23.496;2022-10-31T08:18:20;4.97;;;2.70;;
6868;SDS011;3473;42.604;23.496;2022-10-31T08:19:53;2.93;;;2.20;;
6868;SDS011;3473;42.604;23.496;2022-10-31T08:21:25;2.83;;;2.07;;
6868;SDS011;3473;42.604;23.496;2022-10-31T08:22:57;5.47;;;2.20;;
6868;SDS011;3473;42.604;23.496;2022-10-31T08:24:29;4.10;;;2.20;;
6868;SDS011;3473;42.604;23.496;2022-10-31T08:26:00;2.63;;;1.83;;
6868;SDS011;3473;42.604;23.496;2022-10-31T08:27:37;4.10;;;2.50;;
6868;SDS011;3473;42.604;23.496;2022-10-31T08:29:08;3.40;;;2.17;;
6868;SDS011;3473;42.604;23.496;2022-10-31T08:30:40;3.47;;;2.17;;
6868;SDS011;3473;42.604;23.496;2022-10-31T08:32:12;3.10;;;2.30;;
6868;SDS011;3473;42.604;23.496;2022-10-31T08:33:45;4.07;;;2.13;;
6868;SDS011;3473;42.604;23.496;2022-10-31T08:35:16;5.17;;;2.57;;
6868;SDS011;3473;42.604;23.496;2022-10-31T08:36:48;4.60;;;2.40;;
6868;SDS011;3473;42.604;23.496;2022-10-31T08:38:19;4.00;;;2.47;;
6868;SDS011;3473;42.604;23.496;2022-10-31T08:39:51;4.20;;;2.23;;
6868;SDS011;3473;42.604;23.496;2022-10-31T08:41:23;3.40;;;1.92;;
6868;SDS011;3473;42.604;23.496;2022-10-31T08:42:59;4.00;;;2.60;;
6868;SDS011;3473;42.604;23.496;2022-10-31T08:44:31;4.07;;;2.00;;
6868;SDS011;3473;42.604;23.496;2022-10-31T08:46:02;3.10;;;2.13;;
6868;SDS011;3473;42.604;23.496;2022-10-31T08:47:34;3.90;;;2.28;;
6868;SDS011;3473;42.604;23.496;2022-10-31T08:49:06;3.83;;;2.50;;
6868;SDS011;3473;42.604;23.496;2022-10-31T08:50:39;3.33;;;2.10;;
6868;SDS011;3473;42.604;23.496;2022-10-31T08:52:10;4.20;;;2.20;;
6868;SDS011;3473;42.604;23.496;2022-10-31T08:53:42;6.47;;;2.80;;
6868;SDS011;3473;42.604;23.496;2022-10-31T08:55:13;5.15;;;2.50;;
6868;SDS011;3473;42.604;23.496;2022-10-31T08:56:45;4.40;;;2.47;;
6868;SDS011;3473;42.604;23.496;2022-10-31T08:58:18;3.63;;;2.25;;
6868;SDS011;3473;42.604;23.496;2022-10-31T08:59:50;3.38;;;2.38;;
6868;SDS011;3473;42.604;23.496;2022-10-31T09:01:21;4.10;;;2.15;;
6868;SDS011;3473;42.604;23.496;2022-10-31T09:02:56;4.80;;;2.33;;
6868;SDS011;3473;42.604;23.496;2022-10-31T09:04:28;3.15;;;2.05;;
6868;SDS011;3473;42.604;23.496;2022-10-31T09:06:00;4.03;;;2.40;;
6868;SDS011;3473;42.604;23.496;2022-10-31T09:07:32;5.00;;;2.20;;
6868;SDS011;3473;42.604;23.496;2022-10-31T09:09:04;4.13;;;2.78;;
6868;SDS011;3473;42.604;23.496;2022-10-31T09:10:36;2.92;;;2.22;;
6868;SDS011;3473;42.604;23.496;2022-10-31T09:12:08;2.88;;;2.10;;
6868;SDS011;3473;42.604;23.496;2022-10-31T09:13:40;4.25;;;2.25;;
6868;SDS011;3473;42.604;23.496;2022-10-31T09:15:12;3.80;;;2.38;;
6868;SDS011;3473;42.604;23.496;2022-10-31T09:16:43;4.60;;;2.08;;
6868;SDS011;3473;42.604;23.496;2022-10-31T09:18:16;4.10;;;2.20;;
6868;SDS011;3473;42.604;23.496;2022-10-31T09:19:47;3.27;;;2.40;;
6868;SDS011;3473;42.604;23.496;2022-10-31T09:21:19;5.00;;;2.70;;
6868;SDS011;3473;42.604;23.496;2022-10-31T09:22:55;3.50;;;2.10;;
6868;SDS011;3473;42.604;23.496;2022-10-31T09:24:26;4.35;;;2.33;;
6868;SDS011;3473;42.604;23.496;2022-10-31T09:25:58;4.57;;;2.40;;
6868;SDS011;3473;42.604;23.496;2022-10-31T09:27:30;2.90;;;1.83;;
6868;SDS011;3473;42.604;23.496;2022-10-31T09:29:03;3.17;;;2.40;;